Time;durP1;ratioP1;P1;durP2;ratioP2;P2;SDS_P1;SDS_P2;PMS_P1;PMS_P2;Temp;Humidity;BMP_temperature;BMP_pressure;BME280_temperature;BME280_humidity;BME280_pressure;Samples;Min_cycle;Max_cycle;Signal;HPM_P1;HPM_P2
2023/04/15 00:00:51;;;;;;;1.27;1.08;;;;;;;17.69;31.21;100971.44;4987225;28;20042;-70
2023/04/15 00:03:20;;;;;;;4.82;1.38;;;;;;;17.70;31.25;100966.19;4992259;28;20049;-72
2023/04/15 00:05:49;;;;;;;5.10;1.60;;;;;;;17.71;32.07;100959.22;4992404;28;20048;-73
2023/04/15 00:08:18;;;;;;;1.85;1.10;;;;;;;17.81;33.36;100961.03;4987811;28;20140;-72
2023/04/15 00:10:47;;;;;;;2.95;1.50;;;;;;;17.91;33.32;100960.19;5000563;28;20649;-70
2023/04/15 00:13:17;;;;;;;2.03;1.40;;;;;;;17.97;32.25;100957.56;5007572;28;20054;-71
2023/04/15 00:15:46;;;;;;;2.92;1.33;;;;;;;17.98;31.64;100959.34;5002217;28;20046;-73
2023/04/15 00:18:14;;;;;;;3.45;1.17;;;;;;;17.70;31.57;100966.19;4999438;28;20054;-72
2023/04/15 00:20:43;;;;;;;2.50;1.48;;;;;;;17.57;31.59;100959.19;5005794;28;20053;-71
2023/04/15 00:23:12;;;;;;;2.05;1.40;;;;;;;17.46;31.72;100951.28;5007470;28;20612;-72
2023/04/15 00:25:41;;;;;;;2.80;1.50;;;;;;;17.37;32.73;100953.84;5005899;28;20046;-69
2023/04/15 00:28:09;;;;;;;1.90;1.10;;;;;;;17.48;32.53;100956.53;5002875;28;20130;-71
2023/04/15 00:30:41;;;;;;;1.48;1.15;;;;;;;17.60;32.77;100961.81;5001436;28;20057;-72
2023/04/15 00:33:10;;;;;;;2.05;1.20;;;;;;;17.54;32.10;100960.00;5007415;28;20046;-72
2023/04/15 00:35:39;;;;;;;1.83;1.20;;;;;;;17.39;31.95;100957.34;5005916;28;20057;-72
2023/04/15 00:38:08;;;;;;;3.67;1.60;;;;;;;17.37;32.16;100959.09;5002097;28;20050;-71
2023/04/15 00:40:37;;;;;;;3.10;1.30;;;;;;;17.47;32.73;100954.75;5001294;28;20118;-72
2023/04/15 00:43:06;;;;;;;2.42;1.33;;;;;;;17.58;32.84;100955.69;5002613;28;20088;-71
2023/04/15 00:45:34;;;;;;;2.30;1.20;;;;;;;17.66;31.47;100951.38;5004164;28;20057;-72
2023/04/15 00:48:06;;;;;;;2.63;0.93;;;;;;;17.72;32.18;100948.75;5002189;28;20046;-71
2023/04/15 00:50:35;;;;;;;3.07;1.30;;;;;;;17.69;31.06;100959.22;5004430;28;20046;-72
2023/04/15 00:53:03;;;;;;;2.38;1.23;;;;;;;17.62;30.48;100953.97;5005065;28;20668;-71
2023/04/15 00:55:32;;;;;;;1.35;0.65;;;;;;;17.51;31.20;100956.53;5000392;28;20654;-71
2023/04/15 00:58:01;;;;;;;2.75;1.10;;;;;;;17.48;31.10;100951.28;5007574;28;20048;-73
2023/04/15 01:00:30;;;;;;;1.25;0.80;;;;;;;17.41;30.59;100946.88;5001556;28;20484;-70
2023/04/15 01:02:59;;;;;;;1.42;1.10;;;;;;;17.40;30.57;100945.16;5002855;28;20506;-71
2023/04/15 01:05:30;;;;;;;1.35;0.70;;;;;;;17.24;31.60;100949.41;5003063;28;20065;-71
2023/04/15 01:08:00;;;;;;;1.38;0.88;;;;;;;17.21;31.98;100950.28;4997562;28;20531;-71
2023/04/15 01:10:29;;;;;;;1.65;0.65;;;;;;;17.22;32.29;100948.53;5007622;28;20053;-72
2023/04/15 01:12:58;;;;;;;1.77;0.80;;;;;;;17.13;31.81;100944.13;4995933;28;20073;-71
2023/04/15 01:15:27;;;;;;;1.38;0.70;;;;;;;17.07;31.66;100942.38;5007891;28;20045;-71
2023/04/15 01:17:58;;;;;;;1.65;1.00;;;;;;;17.03;31.60;100935.38;4999339;28;20143;-72
2023/04/15 01:20:29;;;;;;;3.63;0.93;;;;;;;16.99;31.86;100935.34;5002653;28;20124;-69
2023/04/15 01:22:59;;;;;;;1.80;0.87;;;;;;;16.87;32.16;100937.00;5001440;28;20054;-71
2023/04/15 01:25:33;;;;;;;1.30;0.70;;;;;;;16.77;32.33;100935.19;4998390;28;20342;-71
2023/04/15 01:30:50;;;;;;;2.05;1.05;;;;;;;16.84;33.40;100942.22;4979641;28;20085;-72
2023/04/15 01:33:18;;;;;;;2.00;0.80;;;;;;;16.85;32.94;100941.34;5004376;28;20108;-71
2023/04/15 01:35:47;;;;;;;1.55;1.08;;;;;;;16.86;32.41;100945.72;4998240;28;20053;-72
2023/04/15 01:38:16;;;;;;;2.03;0.80;;;;;;;16.87;32.25;100943.97;5002263;28;20045;-71
2023/04/15 01:40:46;;;;;;;1.00;0.60;;;;;;;16.80;32.80;100932.59;5003993;28;20412;-72
2023/04/15 01:43:15;;;;;;;1.65;0.60;;;;;;;16.75;32.64;100939.50;5001341;28;20054;-71
2023/04/15 01:45:44;;;;;;;1.08;0.70;;;;;;;16.73;32.51;100928.19;5003317;28;20559;-71
2023/04/15 01:48:13;;;;;;;1.20;0.65;;;;;;;16.70;33.23;100933.38;5004403;28;20050;-71
2023/04/15 01:50:42;;;;;;;1.20;0.60;;;;;;;16.66;32.32;100927.25;5000144;28;20048;-71
2023/04/15 01:53:10;;;;;;;1.77;1.00;;;;;;;16.52;32.49;100932.38;5002303;28;20038;-72
2023/04/15 01:55:39;;;;;;;0.88;0.43;;;;;;;16.37;31.73;100931.38;5002595;28;20042;-72
2023/04/15 01:58:10;;;;;;;0.90;0.75;;;;;;;16.28;32.45;100932.16;5002162;28;20073;-72
2023/04/15 02:00:38;;;;;;;1.25;0.60;;;;;;;16.21;33.48;100922.53;5004345;28;20480;-71
2023/04/15 02:03:07;;;;;;;3.92;0.65;;;;;;;16.19;34.00;100935.56;5002674;28;20074;-71
2023/04/15 02:05:35;;;;;;;1.13;0.70;;;;;;;16.19;35.98;100932.06;5004047;28;20077;-72
2023/04/15 02:08:04;;;;;;;0.95;0.50;;;;;;;16.17;35.40;100932.09;5005433;28;20499;-71
2023/04/15 02:10:33;;;;;;;2.35;0.50;;;;;;;16.11;35.82;100925.06;5003385;28;20089;-71
2023/04/15 02:13:02;;;;;;;1.55;0.77;;;;;;;16.05;35.52;100927.59;4999711;28;20129;-71
2023/04/15 02:15:32;;;;;;;1.17;0.70;;;;;;;15.99;35.53;100930.16;5004135;28;20132;-72
2023/04/15 02:18:01;;;;;;;2.78;0.50;;;;;;;15.97;35.47;100931.88;4996430;28;20054;-72
2023/04/15 02:20:31;;;;;;;3.00;1.15;;;;;;;15.93;34.52;100926.63;5001265;28;20140;-72
2023/04/15 02:22:59;;;;;;;1.15;0.80;;;;;;;15.88;35.19;100929.19;5003419;28;20486;-71
2023/04/15 02:25:28;;;;;;;1.00;0.52;;;;;;;15.81;34.54;100933.44;5004785;28;20049;-71
2023/04/15 02:27:59;;;;;;;0.73;0.52;;;;;;;15.81;34.43;100935.19;4994526;28;20622;-72
2023/04/15 02:30:28;;;;;;;3.88;0.82;;;;;;;15.78;34.46;100937.75;5003933;28;20037;-72
2023/04/15 02:32:58;;;;;;;0.70;0.43;;;;;;;15.71;34.41;100942.00;5003371;28;20534;-71
2023/04/15 02:35:27;;;;;;;0.52;0.47;;;;;;;15.64;35.48;100943.63;4998118;28;20046;-72
2023/04/15 02:37:56;;;;;;;1.73;0.40;;;;;;;15.59;36.41;100947.06;5001594;28;20092;-72
2023/04/15 02:40:24;;;;;;;6.47;0.73;;;;;;;15.52;36.75;100946.13;4999873;28;20132;-73
2023/04/15 02:42:53;;;;;;;0.90;0.57;;;;;;;15.39;35.99;100950.31;5000946;28;20603;-73
2023/04/15 02:45:24;;;;;;;2.05;0.82;;;;;;;15.27;38.09;100952.75;4996883;28;20085;-72
2023/04/15 02:47:53;;;;;;;3.28;0.70;;;;;;;15.11;38.32;100949.06;5008876;28;20711;-71
2023/04/15 02:50:24;;;;;;;0.45;0.35;;;;;;;15.03;39.33;100958.50;5002976;28;20116;-72
2023/04/15 02:52:53;;;;;;;3.90;0.52;;;;;;;14.87;41.16;100955.66;5000311;28;20053;-72
2023/04/15 02:55:22;;;;;;;1.02;0.50;;;;;;;14.83;42.39;100960.81;4997527;28;20108;-72
2023/04/15 02:57:50;;;;;;;0.73;0.40;;;;;;;14.78;39.70;100950.31;5006860;28;20583;-72
2023/04/15 03:00:19;;;;;;;1.50;0.82;;;;;;;14.73;39.70;100957.19;5007085;28;20407;-73
2023/04/15 03:02:50;;;;;;;3.75;0.60;;;;;;;14.68;41.13;100965.78;5003117;28;20620;-74
2023/04/15 03:05:19;;;;;;;1.27;0.55;;;;;;;14.61;39.74;100967.41;5009085;28;20056;-74
2023/04/15 03:07:49;;;;;;;1.15;0.60;;;;;;;14.54;42.78;100976.81;5007328;28;20650;-74
2023/04/15 03:10:18;;;;;;;2.97;0.70;;;;;;;14.48;42.56;100981.03;4998396;28;20046;-73
2023/04/15 03:12:47;;;;;;;3.05;1.83;;;;;;;14.37;42.05;100978.25;4989589;28;20523;-73
2023/04/15 03:15:16;;;;;;;6.85;1.33;;;;;;;14.31;42.04;100999.81;4996941;28;20565;-74
2023/04/15 03:17:45;;;;;;;1.17;0.90;;;;;;;14.24;41.87;101003.16;4990615;28;20058;-73
2023/04/15 03:20:14;;;;;;;2.92;0.90;;;;;;;14.17;41.82;100996.09;4999134;28;20073;-74
2023/04/15 03:22:51;;;;;;;1.88;0.95;;;;;;;14.14;43.56;101006.47;4990319;28;20051;-73
2023/04/15 03:25:20;;;;;;;1.88;1.00;;;;;;;14.10;44.31;101009.84;5005618;28;20081;-74
2023/04/15 03:27:49;;;;;;;4.57;1.45;;;;;;;14.08;43.66;101011.53;4990964;28;20077;-75
2023/04/15 03:30:18;;;;;;;0.95;0.93;;;;;;;14.07;45.99;101017.59;4990811;28;20050;-73
2023/04/15 03:32:46;;;;;;;3.28;0.75;;;;;;;14.01;46.62;101023.56;4991893;28;20042;-74
2023/04/15 03:35:15;;;;;;;1.58;0.85;;;;;;;13.92;48.13;101029.44;4986934;28;20050;-76
2023/04/15 03:37:44;;;;;;;4.80;0.80;;;;;;;13.83;47.01;101037.06;4993634;28;20492;-74
2023/04/15 03:40:15;;;;;;;1.15;0.90;;;;;;;13.75;47.90;101036.03;4995390;28;20151;-74
2023/04/15 03:42:44;;;;;;;3.60;1.10;;;;;;;13.65;47.89;101037.53;4993885;28;20924;-75
2023/04/15 03:45:13;;;;;;;3.20;0.93;;;;;;;13.60;48.00;101040.03;4986822;28;20477;-75
2023/04/15 03:47:41;;;;;;;2.70;0.80;;;;;;;13.59;49.64;101042.63;4991095;28;20591;-72
2023/04/15 03:50:11;;;;;;;1.40;0.73;;;;;;;13.50;50.28;101048.50;4996998;28;20050;-74
2023/04/15 03:52:40;;;;;;;1.55;0.90;;;;;;;13.31;49.75;101048.91;4989082;28;20149;-75
2023/04/15 03:55:09;;;;;;;5.10;0.55;;;;;;;13.16;50.99;101057.22;4990533;28;20042;-74
2023/04/15 03:57:40;;;;;;;5.05;0.85;;;;;;;13.00;50.38;101063.75;4989425;28;20057;-73
2023/04/15 04:00:10;;;;;;;3.13;0.80;;;;;;;12.89;50.75;101066.09;4991760;28;21209;-74
2023/04/15 04:02:39;;;;;;;1.60;0.75;;;;;;;12.84;52.21;101074.63;4986924;28;20042;-74
2023/04/15 04:05:08;;;;;;;0.93;0.70;;;;;;;12.74;52.01;101061.41;4993787;28;20052;-74
2023/04/15 04:07:37;;;;;;;2.00;0.93;;;;;;;12.62;53.60;101066.28;4984614;28;20158;-74
2023/04/15 04:10:07;;;;;;;2.97;0.80;;;;;;;12.50;53.50;101069.41;5003535;28;20587;-75
2023/04/15 04:12:36;;;;;;;1.35;0.70;;;;;;;12.41;53.83;101076.06;5001247;28;20056;-74
2023/04/15 04:15:07;;;;;;;2.13;1.02;;;;;;;12.32;54.49;101079.28;5005334;28;20057;-73
2023/04/15 04:17:36;;;;;;;3.90;0.98;;;;;;;12.26;53.66;101079.16;5008208;28;20546;-75
2023/04/15 04:20:05;;;;;;;1.42;0.88;;;;;;;12.24;53.99;101081.69;5003625;28;20613;-74
2023/04/15 04:22:39;;;;;;;2.80;1.00;;;;;;;12.23;54.28;101092.00;5006126;28;20080;-74
2023/04/15 04:25:09;;;;;;;2.53;0.95;;;;;;;12.18;54.59;101091.88;5004040;28;20539;-74
2023/04/15 04:27:38;;;;;;;2.55;0.90;;;;;;;12.15;55.00;101102.19;5003759;28;20046;-74
2023/04/15 04:30:09;;;;;;;6.22;1.10;;;;;;;12.11;54.59;101105.50;5007425;28;20133;-73
2023/04/15 04:32:38;;;;;;;3.40;0.70;;;;;;;12.05;55.50;101102.72;5004530;28;20970;-74
2023/04/15 04:35:07;;;;;;;0.90;0.73;;;;;;;12.01;56.85;101106.09;5008862;28;20049;-74
2023/04/15 04:37:36;;;;;;;1.70;0.93;;;;;;;11.93;56.75;101106.75;5007510;28;20129;-75
2023/04/15 04:40:05;;;;;;;2.47;1.33;;;;;;;11.87;56.81;101122.13;5005413;28;20104;-74
2023/04/15 04:42:34;;;;;;;2.03;0.77;;;;;;;11.81;59.92;101110.66;5008346;28;20045;-73
2023/04/15 04:45:03;;;;;;;3.55;0.88;;;;;;;11.74;59.79;101114.78;5002270;28;20086;-74
2023/04/15 04:47:33;;;;;;;1.42;0.90;;;;;;;11.69;59.11;101113.75;5005417;28;20503;-74
2023/04/15 04:50:09;;;;;;;4.72;1.17;;;;;;;11.61;58.02;101115.22;5001260;28;20069;-73
2023/04/15 04:52:37;;;;;;;2.45;1.27;;;;;;;11.54;59.83;101121.91;5007152;28;20064;-76
2023/04/15 04:55:07;;;;;;;3.75;1.50;;;;;;;11.47;59.33;101117.38;5006647;28;20530;-74
2023/04/15 04:57:36;;;;;;;3.63;1.55;;;;;;;11.41;60.27;101120.66;5003723;28;20060;-72
2023/04/15 05:00:07;;;;;;;6.18;1.30;;;;;;;11.37;62.96;101118.81;5002790;28;20555;-72
2023/04/15 05:02:37;;;;;;;3.90;1.63;;;;;;;11.30;60.97;101127.22;5006001;28;20092;-73
2023/04/15 05:05:07;;;;;;;3.10;0.90;;;;;;;11.26;61.91;101130.53;5000297;28;20046;-73
2023/04/15 05:07:36;;;;;;;2.40;1.30;;;;;;;11.21;62.13;101124.31;4999127;28;20038;-73
2023/04/15 05:10:05;;;;;;;2.47;1.50;;;;;;;11.14;62.79;101130.13;4998877;28;20685;-73
2023/04/15 05:12:33;;;;;;;3.70;1.20;;;;;;;11.09;61.49;101143.81;4991284;28;20627;-73
2023/04/15 05:15:02;;;;;;;3.05;1.60;;;;;;;11.03;61.32;101137.53;4992027;28;20789;-72
2023/04/15 05:17:34;;;;;;;6.32;2.05;;;;;;;10.97;60.71;101132.16;4995719;28;20707;-72
2023/04/15 05:20:04;;;;;;;5.97;1.90;;;;;;;10.84;62.05;101128.28;4993405;28;20045;-73
2023/04/15 05:22:33;;;;;;;3.83;2.20;;;;;;;10.77;63.19;101126.31;4994095;28;20046;-73
2023/04/15 05:25:01;;;;;;;4.55;1.90;;;;;;;10.74;64.56;101128.78;4988493;28;20129;-72
2023/04/15 05:27:30;;;;;;;8.18;2.22;;;;;;;10.69;63.92;101132.06;4989750;28;20054;-73
2023/04/15 05:29:59;;;;;;;5.13;1.85;;;;;;;10.63;63.84;101124.13;4983443;28;20054;-72
2023/04/15 05:32:28;;;;;;;3.08;1.85;;;;;;;10.61;63.52;101128.34;4993063;28;20054;-73
2023/04/15 05:34:56;;;;;;;5.47;2.92;;;;;;;10.57;63.16;101126.47;4979877;28;20139;-73
2023/04/15 05:37:26;;;;;;;5.78;2.60;;;;;;;10.55;63.30;101128.13;4994280;28;20511;-73
2023/04/15 05:39:55;;;;;;;5.47;2.53;;;;;;;10.51;63.69;101120.19;4994303;28;20699;-73
2023/04/15 05:42:24;;;;;;;4.75;2.40;;;;;;;10.46;63.75;101120.91;4995065;28;20053;-73
2023/04/15 05:44:52;;;;;;;7.35;2.95;;;;;;;10.41;64.14;101125.03;4983038;28;20061;-73
2023/04/15 05:47:21;;;;;;;6.65;2.63;;;;;;;10.37;65.01;101119.72;4980269;28;20166;-72
2023/04/15 05:49:50;;;;;;;6.80;2.72;;;;;;;10.33;65.34;101126.50;4979006;28;20058;-72
2023/04/15 05:52:18;;;;;;;6.28;2.55;;;;;;;10.30;65.67;101131.53;4974986;28;20051;-72
2023/04/15 05:54:49;;;;;;;7.45;2.47;;;;;;;10.27;66.11;101116.75;4977356;28;20382;-73
2023/04/15 05:57:17;;;;;;;5.57;2.40;;;;;;;10.24;65.81;101123.53;4981655;28;20043;-73
2023/04/15 05:59:46;;;;;;;6.18;2.10;;;;;;;10.21;66.01;101126.88;4985217;28;20475;-72
2023/04/15 06:02:15;;;;;;;6.40;2.13;;;;;;;10.18;66.67;101121.59;4991503;28;20060;-72
2023/04/15 06:04:43;;;;;;;4.57;2.35;;;;;;;10.16;66.23;101118.06;4985034;28;20050;-73
2023/04/15 06:07:12;;;;;;;3.05;2.33;;;;;;;10.13;66.60;101117.97;4986517;28;20046;-72
2023/04/15 06:09:41;;;;;;;7.80;2.50;;;;;;;10.10;67.23;101117.88;4987476;28;20141;-71
2023/04/15 06:12:12;;;;;;;5.30;2.28;;;;;;;10.06;67.29;101110.81;5001799;28;20050;-72
2023/04/15 06:14:40;;;;;;;7.70;2.80;;;;;;;10.00;67.90;101111.44;4997369;28;20041;-72
2023/04/15 06:17:09;;;;;;;5.88;2.60;;;;;;;9.98;67.89;101107.91;4999093;28;20106;-73
2023/04/15 06:19:38;;;;;;;3.80;1.90;;;;;;;9.96;69.32;101108.69;4993695;28;20421;-73
2023/04/15 06:22:07;;;;;;;6.95;2.15;;;;;;;9.91;68.21;101103.34;4999032;28;20168;-73
2023/04/15 06:24:36;;;;;;;3.00;1.50;;;;;;;9.83;70.65;101104.78;5003168;28;20049;-72
2023/04/15 06:27:05;;;;;;;3.75;2.17;;;;;;;9.72;72.45;101106.94;4997503;28;20049;-73
2023/04/15 06:29:36;;;;;;;5.07;2.67;;;;;;;9.57;72.40;101114.09;5002558;28;20061;-74
2023/04/15 06:32:05;;;;;;;5.55;2.55;;;;;;;9.48;72.19;101113.72;5000298;28;20053;-72
2023/04/15 06:34:34;;;;;;;7.25;2.78;;;;;;;9.37;72.09;101119.34;5003188;28;20046;-72
2023/04/15 06:37:02;;;;;;;7.53;2.58;;;;;;;9.28;73.20;101129.31;5006260;28;20042;-72
2023/04/15 06:39:31;;;;;;;6.15;2.30;;;;;;;9.26;72.96;101127.50;5006509;28;20076;-73
2023/04/15 06:42:00;;;;;;;3.72;1.80;;;;;;;9.25;73.08;101134.34;5005559;28;20046;-73
2023/04/15 06:44:28;;;;;;;6.88;2.53;;;;;;;9.26;72.43;101140.41;5003202;28;20050;-73
2023/04/15 06:46:59;;;;;;;4.97;2.42;;;;;;;9.22;73.43;101141.97;4994976;28;20046;-72
2023/04/15 06:49:27;;;;;;;5.32;2.42;;;;;;;9.17;72.88;101141.78;5004497;28;20053;-72
2023/04/15 06:51:56;;;;;;;4.80;2.40;;;;;;;9.15;73.72;101147.69;4999601;28;20536;-72
2023/04/15 06:54:25;;;;;;;8.10;2.30;;;;;;;9.13;73.75;101151.91;4997353;28;20081;-72
2023/04/15 06:56:53;;;;;;;5.78;2.90;;;;;;;9.09;73.62;101144.84;5003787;28;21236;-72
2023/04/15 06:59:22;;;;;;;4.45;2.05;;;;;;;9.06;73.16;101152.47;4996318;28;20058;-71
2023/04/15 07:01:51;;;;;;;9.00;2.05;;;;;;;9.02;74.43;101152.38;5000484;28;20054;-73
2023/04/15 07:04:21;;;;;;;3.67;2.40;;;;;;;8.99;73.92;101157.38;5001353;28;20703;-72
2023/04/15 07:06:50;;;;;;;6.25;2.85;;;;;;;8.96;74.66;101162.41;5004807;28;20136;-73
2023/04/15 07:09:18;;;;;;;4.47;2.35;;;;;;;8.95;75.69;101170.97;5002878;28;20054;-73
2023/04/15 07:11:47;;;;;;;4.63;1.90;;;;;;;8.92;75.80;101173.41;5005798;28;20492;-73
2023/04/15 07:14:16;;;;;;;5.18;2.40;;;;;;;8.91;76.55;101171.66;4998718;28;20133;-73
2023/04/15 07:16:44;;;;;;;5.53;2.10;;;;;;;8.90;76.53;101177.63;5003502;28;20046;-72
2023/04/15 07:19:13;;;;;;;8.88;2.60;;;;;;;8.87;76.37;101186.97;4999035;28;20058;-73
2023/04/15 07:21:43;;;;;;;7.57;2.67;;;;;;;8.85;77.00;101184.31;5005428;28;20129;-73
2023/04/15 07:24:15;;;;;;;3.40;2.30;;;;;;;8.83;75.78;101188.50;5007194;28;20058;-73
2023/04/15 07:26:44;;;;;;;6.70;2.72;;;;;;;8.78;76.62;101190.00;5000691;28;20057;-73
2023/04/15 07:29:12;;;;;;;3.30;1.75;;;;;;;8.74;77.06;101203.59;5003857;28;20463;-72
2023/04/15 07:31:42;;;;;;;3.17;2.10;;;;;;;8.68;77.15;101198.16;5002566;28;20045;-72
2023/04/15 07:34:10;;;;;;;2.90;2.00;;;;;;;8.60;77.84;101200.41;5001180;28;20080;-72
2023/04/15 07:36:39;;;;;;;5.97;1.80;;;;;;;8.52;79.07;101191.41;5003602;28;20054;-73
2023/04/15 07:39:09;;;;;;;8.35;2.30;;;;;;;8.45;79.09;101189.38;4996671;28;20054;-72
2023/04/15 07:41:38;;;;;;;6.50;2.17;;;;;;;8.47;79.10;101201.53;5002405;28;20536;-72
2023/04/15 07:44:07;;;;;;;3.45;1.90;;;;;;;8.46;79.71;101197.19;5004481;28;20233;-72
2023/04/15 07:46:36;;;;;;;4.72;1.85;;;;;;;8.43;78.94;101191.91;5010115;28;20419;-72
2023/04/15 07:49:04;;;;;;;4.30;2.17;;;;;;;8.38;79.80;101201.09;5011128;28;20053;-72
2023/04/15 07:51:33;;;;;;;3.13;1.58;;;;;;;8.31;81.72;101199.03;5008119;28;20435;-72
2023/04/15 07:54:03;;;;;;;5.13;1.75;;;;;;;8.25;83.23;101201.38;5006328;28;20049;-71
2023/04/15 07:56:33;;;;;;;4.80;1.88;;;;;;;8.17;84.06;101209.59;4998821;28;20659;-73
2023/04/15 07:59:03;;;;;;;6.82;1.80;;;;;;;8.14;83.35;101214.63;4999659;28;20451;-73
2023/04/15 08:01:33;;;;;;;6.68;2.03;;;;;;;8.12;81.39;101215.38;5005271;28;20050;-72
2023/04/15 08:04:01;;;;;;;2.92;1.83;;;;;;;8.10;81.11;101215.28;4999855;28;20146;-73
2023/04/15 08:06:30;;;;;;;2.38;1.00;;;;;;;8.08;81.92;101214.31;5006027;28;20124;-72
2023/04/15 08:08:59;;;;;;;4.82;1.85;;;;;;;8.08;81.47;101209.16;5000432;28;20137;-72
2023/04/15 08:11:28;;;;;;;2.95;1.40;;;;;;;8.05;81.16;101206.47;4996448;28;20112;-72
2023/04/15 08:13:59;;;;;;;4.63;2.00;;;;;;;8.07;81.79;101206.53;5004753;28;20393;-72
2023/04/15 08:16:28;;;;;;;3.20;2.08;;;;;;;8.07;81.98;101203.97;5001224;28;20646;-72
2023/04/15 08:18:57;;;;;;;4.20;1.92;;;;;;;8.06;81.97;101200.47;5001843;28;20693;-72
2023/04/15 08:21:26;;;;;;;3.63;1.65;;;;;;;8.04;82.76;101203.81;5007304;28;20050;-73
2023/04/15 08:23:55;;;;;;;1.98;1.27;;;;;;;8.00;81.08;101197.63;5007133;28;20058;-73
2023/04/15 08:26:24;;;;;;;3.60;1.80;;;;;;;7.91;83.53;101207.50;5002790;28;20145;-73
2023/04/15 08:28:52;;;;;;;2.75;1.42;;;;;;;7.82;84.23;101196.78;4999091;28;20522;-73
2023/04/15 08:31:22;;;;;;;8.20;1.80;;;;;;;7.79;84.83;101196.59;4997503;28;20475;-73
2023/04/15 08:33:53;;;;;;;2.55;1.60;;;;;;;7.76;83.93;101198.25;5004072;28;20046;-72
2023/04/15 08:36:22;;;;;;;4.28;1.95;;;;;;;7.75;84.89;101199.03;4992495;28;20046;-72
2023/04/15 08:38:51;;;;;;;3.88;1.60;;;;;;;7.70;84.06;101189.34;5006439;28;20056;-73
2023/04/15 08:41:24;;;;;;;2.38;1.52;;;;;;;7.71;83.86;101197.13;5003708;28;20492;-73
2023/04/15 08:43:58;;;;;;;3.35;1.50;;;;;;;7.71;84.89;101194.56;4999249;28;20097;-71
2023/04/15 08:46:30;;;;;;;3.40;1.35;;;;;;;7.68;84.02;101191.84;5006028;28;20077;-72
2023/04/15 08:48:59;;;;;;;5.38;1.63;;;;;;;7.67;84.16;101190.09;5000362;28;20484;-74
2023/04/15 08:51:30;;;;;;;4.70;1.40;;;;;;;7.65;84.68;101199.44;5004380;28;20576;-73
2023/04/15 08:53:59;;;;;;;3.17;1.77;;;;;;;7.64;85.34;101200.22;5003737;28;20511;-73
2023/04/15 08:56:28;;;;;;;2.03;1.05;;;;;;;7.59;86.68;101205.97;4995471;28;21309;-72
2023/04/15 08:58:57;;;;;;;4.47;1.50;;;;;;;7.54;86.10;101205.75;5000356;28;20487;-73
2023/04/15 09:01:28;;;;;;;4.00;1.13;;;;;;;7.50;86.04;101211.53;5000790;28;20089;-72
2023/04/15 09:03:58;;;;;;;2.25;1.30;;;;;;;7.40;85.98;101205.06;5000922;28;20439;-72
2023/04/15 09:06:27;;;;;;;2.22;1.02;;;;;;;7.26;86.67;101206.97;4992895;28;20103;-72
2023/04/15 09:08:56;;;;;;;5.10;1.73;;;;;;;7.16;87.00;101204.72;4998004;28;20045;-72
2023/04/15 09:11:25;;;;;;;2.15;1.20;;;;;;;7.09;88.87;101212.94;5007698;28;20093;-72
2023/04/15 09:13:54;;;;;;;3.65;1.20;;;;;;;7.05;89.69;101208.44;5001564;28;20515;-72
2023/04/15 09:16:23;;;;;;;2.75;1.20;;;;;;;7.08;89.65;101219.78;5007402;28;20053;-72
2023/04/15 09:18:53;;;;;;;4.60;1.92;;;;;;;7.13;89.32;101220.00;4997302;28;20536;-71
2023/04/15 09:21:22;;;;;;;2.67;1.52;;;;;;;7.16;88.81;101215.00;4992959;28;20057;-71
2023/04/15 09:23:58;;;;;;;2.72;1.13;;;;;;;7.16;88.28;101215.00;5005060;28;20053;-72
2023/04/15 09:26:35;;;;;;;2.50;1.23;;;;;;;7.17;88.46;101216.78;5006715;28;20547;-72
2023/04/15 09:29:08;;;;;;;2.83;1.05;;;;;;;7.18;88.02;101222.81;5004067;28;20052;-71
2023/04/15 09:31:37;;;;;;;2.60;1.15;;;;;;;7.19;87.65;101225.44;5003310;28;20054;-72
2023/04/15 09:34:07;;;;;;;1.95;0.95;;;;;;;7.21;87.15;101230.69;4998140;28;20491;-72
2023/04/15 09:36:54;;;;;;;2.78;1.38;;;;;;;7.22;87.01;101224.75;4996420;28;20042;-72
2023/04/15 09:39:23;;;;;;;2.75;1.42;;;;;;;7.22;88.18;101225.63;4999209;28;20708;-72
2023/04/15 09:42:10;;;;;;;2.05;1.05;;;;;;;7.21;87.20;101228.09;4999112;28;20422;-71
2023/04/15 09:44:39;;;;;;;2.97;1.40;;;;;;;7.19;87.67;101225.44;5000597;28;20487;-71
2023/04/15 09:47:07;;;;;;;3.03;1.02;;;;;;;7.16;87.71;101225.31;5007311;28;20052;-71
2023/04/15 09:49:38;;;;;;;2.03;1.23;;;;;;;7.11;87.12;101221.63;5002158;28;20673;-72
2023/04/15 09:52:06;;;;;;;2.90;1.10;;;;;;;7.05;88.57;101224.75;5006426;28;20100;-72
2023/04/15 09:54:46;;;;;;;1.67;0.90;;;;;;;6.97;89.18;101225.19;4997044;28;20050;-72
2023/04/15 09:57:15;;;;;;;2.15;1.10;;;;;;;6.91;90.29;101228.31;5006390;28;20054;-72
2023/04/15 09:59:44;;;;;;;1.13;1.02;;;;;;;6.84;90.43;101232.25;5004490;28;20057;-73
2023/04/15 10:02:14;;;;;;;1.77;1.00;;;;;;;6.78;90.55;101226.81;5002683;28;20050;-73
2023/04/15 10:04:45;;;;;;;2.20;1.40;;;;;;;6.67;90.16;101225.34;5003676;28;20499;-73
2023/04/15 10:07:14;;;;;;;1.40;1.30;;;;;;;6.74;90.96;101232.59;4997938;28;20139;-73
2023/04/15 10:09:44;;;;;;;2.30;1.23;;;;;;;6.72;91.30;101226.47;5003539;28;20112;-72
2023/04/15 10:12:27;;;;;;;1.58;1.10;;;;;;;6.82;90.28;101233.84;4995558;28;20068;-73
2023/04/15 10:14:59;;;;;;;5.15;1.08;;;;;;;6.83;89.14;101243.34;4999223;28;20462;-72
2023/04/15 10:17:32;;;;;;;3.67;1.23;;;;;;;6.82;88.22;101246.72;5003863;28;20132;-73
2023/04/15 10:20:04;;;;;;;2.60;1.20;;;;;;;6.71;90.55;101251.31;5001698;28;20153;-73
2023/04/15 10:22:33;;;;;;;3.67;1.25;;;;;;;6.63;90.32;101247.44;4998957;28;20053;-72
2023/04/15 10:25:04;;;;;;;1.55;1.02;;;;;;;6.50;91.20;101232.16;5006491;28;20483;-72
2023/04/15 10:27:34;;;;;;;2.92;1.10;;;;;;;6.63;91.09;101256.84;5002905;28;20076;-72
2023/04/15 10:30:03;;;;;;;3.38;1.27;;;;;;;6.64;90.75;101258.59;4994454;28;20045;-73
2023/04/15 10:32:32;;;;;;;3.55;1.17;;;;;;;6.61;90.65;101254.19;5004404;28;20049;-72
2023/04/15 10:35:04;;;;;;;1.45;0.90;;;;;;;6.55;91.87;101251.31;5004576;28;20076;-72
2023/04/15 10:37:37;;;;;;;2.28;1.10;;;;;;;6.47;91.63;101263.72;5000246;28;20056;-72
2023/04/15 10:40:23;;;;;;;;;;;;;;;6.39;91.69;101270.16;4997968;28;20056;-73
2023/04/15 10:42:52;;;;;;;2.00;1.20;;;;;;;6.34;91.70;101271.56;4998318;28;20311;-73
2023/04/15 10:45:21;;;;;;;1.60;1.00;;;;;;;6.32;91.42;101270.59;5000688;28;20418;-72
2023/04/15 10:47:55;;;;;;;2.08;1.00;;;;;;;6.33;91.17;101280.09;5004535;28;20116;-73
2023/04/15 10:50:28;;;;;;;2.38;1.23;;;;;;;6.35;90.56;101281.06;4996732;28;20137;-73
2023/04/15 10:52:58;;;;;;;1.50;1.02;;;;;;;6.29;90.16;101267.88;5002797;28;20077;-72
2023/04/15 10:55:27;;;;;;;2.97;1.40;;;;;;;6.37;90.28;101279.47;5003493;28;20057;-72
2023/04/15 10:57:59;;;;;;;4.30;1.48;;;;;;;6.38;90.55;101286.34;5005945;28;20054;-72
2023/04/15 11:00:31;;;;;;;2.50;1.10;;;;;;;6.37;90.04;101286.25;5006169;28;20471;-72
2023/04/15 11:03:05;;;;;;;1.53;1.00;;;;;;;6.35;90.34;101287.91;5010359;28;20053;-72
2023/04/15 11:06:02;;;;;;;1.80;0.75;;;;;;;6.32;89.71;101285.13;5007814;28;20561;-72
2023/04/15 11:08:56;;;;;;;1.33;0.73;;;;;;;6.28;90.28;101273.81;4960951;28;20133;-73
2023/04/15 11:11:24;;;;;;;2.25;1.20;;;;;;;6.26;90.62;101276.28;4989520;28;20507;-73
2023/04/15 11:13:53;;;;;;;1.67;0.85;;;;;;;6.23;90.84;101265.84;4991470;28;20065;-72
2023/04/15 11:16:22;;;;;;;2.33;1.30;;;;;;;6.24;91.18;101279.59;4989010;28;20575;-73
2023/04/15 11:18:57;;;;;;;3.00;1.17;;;;;;;6.22;91.56;101279.50;4982404;28;20130;-73
2023/04/15 11:21:28;;;;;;;2.03;0.80;;;;;;;6.22;92.03;101279.50;5001115;28;20116;-72
2023/04/15 11:23:56;;;;;;;3.30;1.08;;;;;;;6.22;91.63;101281.19;4997288;28;20062;-72
2023/04/15 11:26:27;;;;;;;1.27;0.77;;;;;;;6.22;91.51;101276.03;4995549;28;20054;-72
2023/04/15 11:28:56;;;;;;;3.55;1.10;;;;;;;6.21;92.02;101277.72;4998699;28;20455;-73
2023/04/15 11:31:29;;;;;;;2.22;1.48;;;;;;;6.19;92.06;101279.34;5000754;28;20108;-73
2023/04/15 11:34:00;;;;;;;1.23;0.70;;;;;;;6.18;92.07;101280.13;4989719;28;20050;-73
2023/04/15 11:36:31;;;;;;;1.98;1.23;;;;;;;6.18;91.75;101279.25;4978528;28;20049;-73
2023/04/15 11:39:00;;;;;;;2.03;1.15;;;;;;;6.17;90.57;101280.06;4989461;28;20057;-73
2023/04/15 11:41:29;;;;;;;3.83;1.25;;;;;;;6.10;91.06;101277.94;4984596;28;20053;-73
2023/04/15 11:43:58;;;;;;;2.30;1.50;;;;;;;5.97;93.41;101277.22;4995447;28;20202;-73